sensor_id;sensor_type;location;lat;lon;timestamp;pressure;altitude;pressure_sealevel;temperature;humidity
63500;BME280;49654;51.142;14.924;2023-10-13T00:01:10;99031.41;;;16.87;74.74
63500;BME280;49654;51.142;14.924;2023-10-13T00:03:39;99133.09;;;17.46;74.80
63500;BME280;49654;51.142;14.924;2023-10-13T00:06:06;99126.34;;;17.39;75.05
63500;BME280;49654;51.142;14.924;2023-10-13T00:08:34;99101.25;;;17.24;75.35
63500;BME280;49654;51.142;14.924;2023-10-13T00:11:05;99119.69;;;17.36;75.33
63500;BME280;49654;51.142;14.924;2023-10-13T00:13:35;99122.38;;;17.30;75.35
63500;BME280;49654;51.142;14.924;2023-10-13T00:16:10;99117.06;;;17.18;76.37
63500;BME280;49654;51.142;14.924;2023-10-13T00:18:43;99118.72;;;17.12;76.56
63500;BME280;49654;51.142;14.924;2023-10-13T00:21:11;99124.94;;;17.18;76.49
63500;BME280;49654;51.142;14.924;2023-10-13T00:23:46;99116.25;;;16.99;77.12
63500;BME280;49654;51.142;14.924;2023-10-13T00:26:19;99102.97;;;16.94;77.00
63500;BME280;49654;51.142;14.924;2023-10-13T00:28:50;99124.22;;;17.11;77.21
63500;BME280;49654;51.142;14.924;2023-10-13T00:31:26;99128.66;;;17.10;77.37
63500;BME280;49654;51.142;14.924;2023-10-13T00:33:59;99126.16;;;17.15;76.61
63500;BME280;49654;51.142;14.924;2023-10-13T00:36:35;99125.44;;;17.08;77.50
63500;BME280;49654;51.142;14.924;2023-10-13T00:39:02;99109.13;;;17.06;77.07
63500;BME280;49654;51.142;14.924;2023-10-13T00:41:30;99125.59;;;17.13;76.85
63500;BME280;49654;51.142;14.924;2023-10-13T00:44:16;99133.47;;;17.13;76.94
63500;BME280;49654;51.142;14.924;2023-10-13T00:46:45;99128.50;;;17.05;77.51
63500;BME280;49654;51.142;14.924;2023-10-13T00:49:11;99138.72;;;17.13;77.27
63500;BME280;49654;51.142;14.924;2023-10-13T00:51:41;99117.06;;;17.18;76.99
63500;BME280;49654;51.142;14.924;2023-10-13T00:54:13;99122.25;;;17.24;76.81
63500;BME280;49654;51.142;14.924;2023-10-13T00:56:42;99114.94;;;17.45;75.91
63500;BME280;49654;51.142;14.924;2023-10-13T00:59:13;99037.91;;;16.84;76.37
63500;BME280;49654;51.142;14.924;2023-10-13T01:01:40;99112.91;;;17.28;76.90
63500;BME280;49654;51.142;14.924;2023-10-13T01:04:10;99113.19;;;17.20;77.24
63500;BME280;49654;51.142;14.924;2023-10-13T01:06:39;99112.16;;;17.21;77.07
63500;BME280;49654;51.142;14.924;2023-10-13T01:09:06;99081.63;;;16.90;77.69
63500;BME280;49654;51.142;14.924;2023-10-13T01:11:43;99117.28;;;17.16;77.44
63500;BME280;49654;51.142;14.924;2023-10-13T01:14:10;99038.69;;;16.66;77.50
63500;BME280;49654;51.142;14.924;2023-10-13T01:16:38;99118.16;;;16.92;77.87
63500;BME280;49654;51.142;14.924;2023-10-13T01:19:10;99122.34;;;16.74;78.98
63500;BME280;49654;51.142;14.924;2023-10-13T01:21:39;99116.69;;;16.46;79.49
63500;BME280;49654;51.142;14.924;2023-10-13T01:24:08;99107.91;;;16.34;79.96
63500;BME280;49654;51.142;14.924;2023-10-13T01:26:36;99109.56;;;16.28;80.27
63500;BME280;49654;51.142;14.924;2023-10-13T01:29:05;99107.75;;;16.28;80.33
63500;BME280;49654;51.142;14.924;2023-10-13T01:31:38;99122.75;;;16.40;79.97
63500;BME280;49654;51.142;14.924;2023-10-13T01:34:12;99056.53;;;16.01;79.22
63500;BME280;49654;51.142;14.924;2023-10-13T01:36:40;99127.31;;;16.51;78.72
63500;BME280;49654;51.142;14.924;2023-10-13T01:39:08;99104.09;;;16.30;79.14
63500;BME280;49654;51.142;14.924;2023-10-13T01:41:42;99121.59;;;16.36;79.64
63500;BME280;49654;51.142;14.924;2023-10-13T01:44:08;99125.31;;;16.21;80.19
63500;BME280;49654;51.142;14.924;2023-10-13T01:46:37;99122.53;;;16.16;80.79
63500;BME280;49654;51.142;14.924;2023-10-13T01:49:04;99113.06;;;16.15;81.51
63500;BME280;49654;51.142;14.924;2023-10-13T01:51:32;99127.72;;;16.23;81.81
63500;BME280;49654;51.142;14.924;2023-10-13T01:53:59;99124.50;;;16.27;81.51
63500;BME280;49654;51.142;14.924;2023-10-13T01:56:30;99128.91;;;16.27;81.69
63500;BME280;49654;51.142;14.924;2023-10-13T01:58:56;99130.97;;;16.18;81.98
63500;BME280;49654;51.142;14.924;2023-10-13T02:01:23;99127.00;;;16.09;82.07
63500;BME280;49654;51.142;14.924;2023-10-13T02:03:53;99083.66;;;15.82;82.63
63500;BME280;49654;51.142;14.924;2023-10-13T02:06:29;99123.97;;;16.12;82.99
63500;BME280;49654;51.142;14.924;2023-10-13T02:08:59;99127.13;;;16.27;82.68
63500;BME280;49654;51.142;14.924;2023-10-13T02:11:37;99125.88;;;16.55;81.75
63500;BME280;49654;51.142;14.924;2023-10-13T02:14:03;99126.47;;;16.57;81.43
63500;BME280;49654;51.142;14.924;2023-10-13T02:16:30;99115.72;;;16.65;81.17
63500;BME280;49654;51.142;14.924;2023-10-13T02:18:57;99100.44;;;16.62;80.93
63500;BME280;49654;51.142;14.924;2023-10-13T02:21:30;99053.75;;;16.27;81.02
63500;BME280;49654;51.142;14.924;2023-10-13T02:23:58;99100.59;;;16.67;80.98
63500;BME280;49654;51.142;14.924;2023-10-13T02:26:30;99121.50;;;16.99;80.34
63500;BME280;49654;51.142;14.924;2023-10-13T02:28:59;99123.41;;;17.10;80.01
63500;BME280;49654;51.142;14.924;2023-10-13T02:31:28;99124.94;;;17.18;79.53
63500;BME280;49654;51.142;14.924;2023-10-13T02:33:54;99134.69;;;16.92;80.57
63500;BME280;49654;51.142;14.924;2023-10-13T02:36:22;99117.03;;;16.99;80.38
63500;BME280;49654;51.142;14.924;2023-10-13T02:39:03;99133.25;;;17.15;79.73
63500;BME280;49654;51.142;14.924;2023-10-13T02:41:33;99091.03;;;16.80;80.45
63500;BME280;49654;51.142;14.924;2023-10-13T02:44:05;99106.69;;;16.86;80.85
63500;BME280;49654;51.142;14.924;2023-10-13T02:46:34;99120.88;;;17.22;79.70
63500;BME280;49654;51.142;14.924;2023-10-13T02:49:01;99122.09;;;17.19;79.50
63500;BME280;49654;51.142;14.924;2023-10-13T02:51:35;99122.09;;;17.38;79.24
63500;BME280;49654;51.142;14.924;2023-10-13T02:54:02;99128.00;;;17.33;79.27
63500;BME280;49654;51.142;14.924;2023-10-13T02:56:35;99122.38;;;17.30;79.04
63500;BME280;49654;51.142;14.924;2023-10-13T02:59:01;99118.16;;;17.28;79.66
63500;BME280;49654;51.142;14.924;2023-10-13T03:01:33;99113.78;;;17.41;79.04
63500;BME280;49654;51.142;14.924;2023-10-13T03:04:00;99105.25;;;17.27;79.21
63500;BME280;49654;51.142;14.924;2023-10-13T03:06:29;99116.53;;;17.46;78.52
63500;BME280;49654;51.142;14.924;2023-10-13T03:08:59;99099.44;;;17.43;78.10
63500;BME280;49654;51.142;14.924;2023-10-13T03:11:40;99113.84;;;17.52;78.16
63500;BME280;49654;51.142;14.924;2023-10-13T03:14:14;99119.03;;;17.41;78.55
63500;BME280;49654;51.142;14.924;2023-10-13T03:16:52;99121.50;;;17.54;78.18
63500;BME280;49654;51.142;14.924;2023-10-13T03:19:18;99113.63;;;17.54;78.22
63500;BME280;49654;51.142;14.924;2023-10-13T03:21:46;99111.59;;;17.38;78.69
63500;BME280;49654;51.142;14.924;2023-10-13T03:24:20;99099.94;;;17.15;79.61
63500;BME280;49654;51.142;14.924;2023-10-13T03:26:59;99094.97;;;17.07;80.05
63500;BME280;49654;51.142;14.924;2023-10-13T03:29:34;99105.03;;;17.10;79.90
63500;BME280;49654;51.142;14.924;2023-10-13T03:32:03;99099.84;;;17.03;79.99
63500;BME280;49654;51.142;14.924;2023-10-13T03:34:37;99097.88;;;16.99;80.68
63500;BME280;49654;51.142;14.924;2023-10-13T03:37:07;99088.41;;;16.98;80.32
63500;BME280;49654;51.142;14.924;2023-10-13T03:39:43;99067.84;;;16.76;80.77
63500;BME280;49654;51.142;14.924;2023-10-13T03:42:11;99082.66;;;16.89;80.98
63500;BME280;49654;51.142;14.924;2023-10-13T03:44:44;99060.41;;;16.73;80.86
63500;BME280;49654;51.142;14.924;2023-10-13T03:47:14;99071.22;;;16.84;80.86
63500;BME280;49654;51.142;14.924;2023-10-13T03:49:53;99074.41;;;16.61;81.36
63500;BME280;49654;51.142;14.924;2023-10-13T03:52:41;99068.09;;;16.43;82.07
63500;BME280;49654;51.142;14.924;2023-10-13T03:55:08;99059.13;;;16.33;82.68
63500;BME280;49654;51.142;14.924;2023-10-13T03:57:43;99060.75;;;16.34;82.81
63500;BME280;49654;51.142;14.924;2023-10-13T04:00:12;99027.94;;;15.99;82.79
63500;BME280;49654;51.142;14.924;2023-10-13T04:02:49;99081.41;;;16.17;83.23
63500;BME280;49654;51.142;14.924;2023-10-13T04:05:29;99056.97;;;15.98;84.03
63500;BME280;49654;51.142;14.924;2023-10-13T04:08:05;99063.72;;;16.12;84.00
63500;BME280;49654;51.142;14.924;2023-10-13T04:10:51;99025.59;;;15.91;83.60
63500;BME280;49654;51.142;14.924;2023-10-13T04:13:36;99062.91;;;16.12;84.01
63500;BME280;49654;51.142;14.924;2023-10-13T04:16:20;99035.09;;;15.86;84.09
63500;BME280;49654;51.142;14.924;2023-10-13T04:19:17;99049.38;;;15.90;85.07
63500;BME280;49654;51.142;14.924;2023-10-13T04:21:50;99053.44;;;15.86;85.30
63500;BME280;49654;51.142;14.924;2023-10-13T04:24:39;99053.19;;;15.94;85.13
63500;BME280;49654;51.142;14.924;2023-10-13T04:27:20;99049.91;;;15.98;85.12
63500;BME280;49654;51.142;14.924;2023-10-13T04:30:10;99042.81;;;16.06;84.80
63500;BME280;49654;51.142;14.924;2023-10-13T04:32:37;99039.38;;;16.05;84.44
63500;BME280;49654;51.142;14.924;2023-10-13T04:35:15;99037.22;;;16.02;84.57
63500;BME280;49654;51.142;14.924;2023-10-13T04:37:45;99046.13;;;15.94;84.98
63500;BME280;49654;51.142;14.924;2023-10-13T04:40:18;99037.09;;;15.90;85.62
63500;BME280;49654;51.142;14.924;2023-10-13T04:42:46;99032.06;;;15.89;85.65
63500;BME280;49654;51.142;14.924;2023-10-13T04:45:19;99027.72;;;15.76;86.32
63500;BME280;49654;51.142;14.924;2023-10-13T04:48:05;99011.69;;;15.59;86.21
63500;BME280;49654;51.142;14.924;2023-10-13T04:51:00;98905.38;;;14.95;86.44
63500;BME280;49654;51.142;14.924;2023-10-13T04:53:45;99042.34;;;15.84;85.97
63500;BME280;49654;51.142;14.924;2023-10-13T04:56:30;99035.69;;;15.88;85.72
63500;BME280;49654;51.142;14.924;2023-10-13T04:59:15;99043.34;;;15.89;85.54
63500;BME280;49654;51.142;14.924;2023-10-13T05:01:43;99045.41;;;15.81;86.15
63500;BME280;49654;51.142;14.924;2023-10-13T05:04:46;99042.19;;;15.78;86.60
63500;BME280;49654;51.142;14.924;2023-10-13T05:07:32;99049.03;;;15.80;86.44
63500;BME280;49654;51.142;14.924;2023-10-13T05:10:17;99043.22;;;15.71;87.10
63500;BME280;49654;51.142;14.924;2023-10-13T05:13:02;99047.41;;;15.78;87.50
63500;BME280;49654;51.142;14.924;2023-10-13T05:15:47;99046.25;;;15.74;87.61
63500;BME280;49654;51.142;14.924;2023-10-13T05:18:33;99031.72;;;15.78;87.84
63500;BME280;49654;51.142;14.924;2023-10-13T05:21:18;99039.88;;;15.95;87.45
63500;BME280;49654;51.142;14.924;2023-10-13T05:24:05;99044.03;;;16.03;86.41
63500;BME280;49654;51.142;14.924;2023-10-13T05:26:51;99035.31;;;16.09;86.09
63500;BME280;49654;51.142;14.924;2023-10-13T05:29:38;99035.78;;;16.06;85.79
63500;BME280;49654;51.142;14.924;2023-10-13T05:32:31;99045.91;;;16.21;85.87
63500;BME280;49654;51.142;14.924;2023-10-13T05:35:16;99032.41;;;16.24;85.12
63500;BME280;49654;51.142;14.924;2023-10-13T05:38:01;99053.63;;;16.41;84.68
63500;BME280;49654;51.142;14.924;2023-10-13T05:40:52;99041.25;;;16.48;84.16
63500;BME280;49654;51.142;14.924;2023-10-13T05:43:37;99047.53;;;16.47;84.00
63500;BME280;49654;51.142;14.924;2023-10-13T05:46:21;99045.91;;;16.46;84.21
63500;BME280;49654;51.142;14.924;2023-10-13T05:49:03;99050.63;;;16.37;84.38
63500;BME280;49654;51.142;14.924;2023-10-13T05:52:06;99053.41;;;16.42;84.51
63500;BME280;49654;51.142;14.924;2023-10-13T05:54:46;99055.38;;;16.47;84.29
63500;BME280;49654;51.142;14.924;2023-10-13T05:57:32;99050.94;;;16.47;84.00
63500;BME280;49654;51.142;14.924;2023-10-13T06:00:17;99053.78;;;16.46;83.97
63500;BME280;49654;51.142;14.924;2023-10-13T06:03:01;99052.53;;;16.48;83.66
63500;BME280;49654;51.142;14.924;2023-10-13T06:05:47;99066.41;;;16.56;83.35
63500;BME280;49654;51.142;14.924;2023-10-13T06:08:31;99069.41;;;16.59;83.66
63500;BME280;49654;51.142;14.924;2023-10-13T06:11:16;99068.75;;;16.64;83.17
63500;BME280;49654;51.142;14.924;2023-10-13T06:14:01;99052.75;;;16.72;82.48
63500;BME280;49654;51.142;14.924;2023-10-13T06:16:46;99067.28;;;16.74;82.57
63500;BME280;49654;51.142;14.924;2023-10-13T06:19:30;99079.78;;;16.72;83.52
63500;BME280;49654;51.142;14.924;2023-10-13T06:22:15;99082.19;;;16.74;83.26
63500;BME280;49654;51.142;14.924;2023-10-13T06:25:00;99050.97;;;16.66;83.38
63500;BME280;49654;51.142;14.924;2023-10-13T06:27:44;99053.94;;;16.94;81.95
63500;BME280;49654;51.142;14.924;2023-10-13T06:30:30;99079.88;;;17.21;81.01
63500;BME280;49654;51.142;14.924;2023-10-13T06:32:59;99064.38;;;17.19;80.61
63500;BME280;49654;51.142;14.924;2023-10-13T06:35:26;99082.88;;;17.06;81.79
63500;BME280;49654;51.142;14.924;2023-10-13T06:37:54;99076.41;;;17.09;81.55
63500;BME280;49654;51.142;14.924;2023-10-13T06:40:25;99070.78;;;17.05;81.60
63500;BME280;49654;51.142;14.924;2023-10-13T06:42:59;99083.81;;;17.12;80.96
63500;BME280;49654;51.142;14.924;2023-10-13T06:45:40;99077.22;;;17.09;81.52
63500;BME280;49654;51.142;14.924;2023-10-13T06:48:07;99081.19;;;17.12;81.62
63500;BME280;49654;51.142;14.924;2023-10-13T06:50:37;99083.03;;;17.11;81.94
63500;BME280;49654;51.142;14.924;2023-10-13T06:53:07;99087.41;;;17.17;81.52
63500;BME280;49654;51.142;14.924;2023-10-13T06:55:38;99070.06;;;16.98;82.27
63500;BME280;49654;51.142;14.924;2023-10-13T06:58:05;99091.63;;;17.18;82.37
63500;BME280;49654;51.142;14.924;2023-10-13T07:00:33;99089.59;;;17.39;81.52
63500;BME280;49654;51.142;14.924;2023-10-13T07:03:01;99073.19;;;17.43;81.21
63500;BME280;49654;51.142;14.924;2023-10-13T07:05:36;99078.72;;;17.35;81.89
63500;BME280;49654;51.142;14.924;2023-10-13T07:08:05;99071.78;;;17.41;81.75
63500;BME280;49654;51.142;14.924;2023-10-13T07:10:32;99074.91;;;17.49;81.72
63500;BME280;49654;51.142;14.924;2023-10-13T07:13:11;99076.78;;;17.61;81.37
63500;BME280;49654;51.142;14.924;2023-10-13T07:15:39;99069.94;;;17.78;80.81
63500;BME280;49654;51.142;14.924;2023-10-13T07:18:13;99077.97;;;17.95;80.50
63500;BME280;49654;51.142;14.924;2023-10-13T07:20:41;99080.53;;;18.13;79.50
63500;BME280;49654;51.142;14.924;2023-10-13T07:23:11;99065.59;;;18.25;78.21
63500;BME280;49654;51.142;14.924;2023-10-13T07:25:51;99077.59;;;18.33;78.98
63500;BME280;49654;51.142;14.924;2023-10-13T07:28:19;99032.28;;;17.96;78.86
63500;BME280;49654;51.142;14.924;2023-10-13T07:30:47;99051.66;;;18.25;78.39
63500;BME280;49654;51.142;14.924;2023-10-13T07:33:39;99074.19;;;18.56;77.89
63500;BME280;49654;51.142;14.924;2023-10-13T07:36:08;99039.19;;;18.44;76.78
63500;BME280;49654;51.142;14.924;2023-10-13T07:38:44;98927.00;;;17.67;76.63
63500;BME280;49654;51.142;14.924;2023-10-13T07:41:14;99068.81;;;18.51;77.02
63500;BME280;49654;51.142;14.924;2023-10-13T07:43:43;99062.97;;;18.49;77.20
63500;BME280;49654;51.142;14.924;2023-10-13T07:46:11;99023.09;;;18.29;76.91
63500;BME280;49654;51.142;14.924;2023-10-13T07:48:40;99049.38;;;18.64;76.64
63500;BME280;49654;51.142;14.924;2023-10-13T07:51:11;99058.19;;;18.69;76.06
63500;BME280;49654;51.142;14.924;2023-10-13T07:53:42;98934.22;;;17.72;76.72
63500;BME280;49654;51.142;14.924;2023-10-13T07:56:09;99055.78;;;18.56;76.83
63500;BME280;49654;51.142;14.924;2023-10-13T07:58:38;99044.13;;;18.64;76.29
63500;BME280;49654;51.142;14.924;2023-10-13T08:01:13;99007.53;;;18.86;75.33
63500;BME280;49654;51.142;14.924;2023-10-13T08:03:46;99013.81;;;18.85;74.68
63500;BME280;49654;51.142;14.924;2023-10-13T08:06:14;99007.00;;;19.00;74.80
63500;BME280;49654;51.142;14.924;2023-10-13T08:08:48;99014.56;;;18.97;73.72
63500;BME280;49654;51.142;14.924;2023-10-13T08:11:19;98997.88;;;18.91;73.66
63500;BME280;49654;51.142;14.924;2023-10-13T08:13:58;99053.59;;;19.00;74.22
63500;BME280;49654;51.142;14.924;2023-10-13T08:16:26;98987.75;;;18.48;75.45
63500;BME280;49654;51.142;14.924;2023-10-13T08:19:13;99015.88;;;18.83;75.51
63500;BME280;49654;51.142;14.924;2023-10-13T08:21:42;98917.91;;;18.40;74.44
63500;BME280;49654;51.142;14.924;2023-10-13T08:24:16;99036.53;;;20.00;72.17
63500;BME280;49654;51.142;14.924;2023-10-13T08:26:51;99013.50;;;20.12;69.33
63500;BME280;49654;51.142;14.924;2023-10-13T08:29:24;99001.50;;;20.55;67.08
63500;BME280;49654;51.142;14.924;2023-10-13T08:32:09;98987.38;;;20.27;67.69
63500;BME280;49654;51.142;14.924;2023-10-13T08:34:51;98995.63;;;21.63;63.80
63500;BME280;49654;51.142;14.924;2023-10-13T08:37:36;99032.63;;;21.63;63.72
63500;BME280;49654;51.142;14.924;2023-10-13T08:40:13;99013.56;;;21.34;65.26
63500;BME280;49654;51.142;14.924;2023-10-13T08:42:46;99025.63;;;21.79;63.75
63500;BME280;49654;51.142;14.924;2023-10-13T08:45:36;99036.78;;;21.86;62.41
63500;BME280;49654;51.142;14.924;2023-10-13T08:48:24;99016.78;;;21.95;63.12
63500;BME280;49654;51.142;14.924;2023-10-13T08:51:00;99024.66;;;22.59;61.89
63500;BME280;49654;51.142;14.924;2023-10-13T08:54:00;99027.31;;;22.22;61.24
63500;BME280;49654;51.142;14.924;2023-10-13T08:56:34;99028.09;;;22.22;63.22
63500;BME280;49654;51.142;14.924;2023-10-13T08:59:00;99022.41;;;22.88;59.93
63500;BME280;49654;51.142;14.924;2023-10-13T09:01:36;99034.31;;;22.38;61.45
63500;BME280;49654;51.142;14.924;2023-10-13T09:04:12;99028.59;;;21.87;63.75
63500;BME280;49654;51.142;14.924;2023-10-13T09:06:50;99029.50;;;21.71;64.09
63500;BME280;49654;51.142;14.924;2023-10-13T09:09:44;98995.38;;;20.93;66.11
63500;BME280;49654;51.142;14.924;2023-10-13T09:12:26;99022.16;;;21.02;66.47
63500;BME280;49654;51.142;14.924;2023-10-13T09:15:03;99022.94;;;21.46;66.33
63500;BME280;49654;51.142;14.924;2023-10-13T09:17:42;99012.78;;;21.60;65.31
63500;BME280;49654;51.142;14.924;2023-10-13T09:20:14;99002.66;;;21.52;65.91
63500;BME280;49654;51.142;14.924;2023-10-13T09:22:59;99000.84;;;21.58;65.79
63500;BME280;49654;51.142;14.924;2023-10-13T09:25:35;99009.63;;;21.63;65.25
63500;BME280;49654;51.142;14.924;2023-10-13T09:28:03;98953.88;;;21.33;65.73
63500;BME280;49654;51.142;14.924;2023-10-13T09:30:42;98989.00;;;21.11;66.55
63500;BME280;49654;51.142;14.924;2023-10-13T09:33:09;98996.84;;;21.50;68.38
63500;BME280;49654;51.142;14.924;2023-10-13T09:35:43;99004.75;;;21.50;67.23
63500;BME280;49654;51.142;14.924;2023-10-13T09:38:16;98998.00;;;21.64;65.76
63500;BME280;49654;51.142;14.924;2023-10-13T09:40:43;98961.44;;;21.83;66.56
63500;BME280;49654;51.142;14.924;2023-10-13T09:43:16;98960.66;;;21.50;66.89
63500;BME280;49654;51.142;14.924;2023-10-13T09:45:46;99007.34;;;21.72;67.08
63500;BME280;49654;51.142;14.924;2023-10-13T09:48:35;98996.88;;;21.55;66.88
63500;BME280;49654;51.142;14.924;2023-10-13T09:51:11;99004.91;;;21.16;67.77
63500;BME280;49654;51.142;14.924;2023-10-13T09:53:41;98985.84;;;21.36;68.60
63500;BME280;49654;51.142;14.924;2023-10-13T09:56:13;98988.41;;;21.85;66.74
63500;BME280;49654;51.142;14.924;2023-10-13T09:58:49;98979.25;;;21.98;65.37
63500;BME280;49654;51.142;14.924;2023-10-13T10:01:24;98966.56;;;21.36;67.22
63500;BME280;49654;51.142;14.924;2023-10-13T10:04:07;98976.16;;;21.20;68.53
63500;BME280;49654;51.142;14.924;2023-10-13T10:06:35;98976.69;;;21.44;67.64
63500;BME280;49654;51.142;14.924;2023-10-13T10:09:08;98977.75;;;21.21;68.29
63500;BME280;49654;51.142;14.924;2023-10-13T10:12:01;98933.84;;;20.66;68.77
63500;BME280;49654;51.142;14.924;2023-10-13T10:14:43;98976.69;;;20.95;69.11
63500;BME280;49654;51.142;14.924;2023-10-13T10:17:13;98978.06;;;21.02;69.21
63500;BME280;49654;51.142;14.924;2023-10-13T10:19:48;98952.63;;;21.18;69.71
63500;BME280;49654;51.142;14.924;2023-10-13T10:22:25;98985.53;;;21.11;69.03
63500;BME280;49654;51.142;14.924;2023-10-13T10:24:58;98924.94;;;20.72;70.09
63500;BME280;49654;51.142;14.924;2023-10-13T10:27:26;98955.63;;;21.00;70.19
63500;BME280;49654;51.142;14.924;2023-10-13T10:29:55;98954.91;;;21.10;69.51
63500;BME280;49654;51.142;14.924;2023-10-13T10:32:31;98938.25;;;21.04;69.58
63500;BME280;49654;51.142;14.924;2023-10-13T10:35:03;98969.22;;;21.36;69.75
63500;BME280;49654;51.142;14.924;2023-10-13T10:37:36;98953.13;;;21.37;68.57
63500;BME280;49654;51.142;14.924;2023-10-13T10:40:09;98929.44;;;21.20;68.69
63500;BME280;49654;51.142;14.924;2023-10-13T10:42:50;98942.53;;;21.64;67.50
63500;BME280;49654;51.142;14.924;2023-10-13T10:45:18;98946.56;;;21.45;68.07
63500;BME280;49654;51.142;14.924;2023-10-13T10:47:48;98917.28;;;21.46;67.30
63500;BME280;49654;51.142;14.924;2023-10-13T10:50:25;98945.28;;;21.47;68.52
63500;BME280;49654;51.142;14.924;2023-10-13T10:53:03;98930.88;;;21.60;68.99
63500;BME280;49654;51.142;14.924;2023-10-13T10:55:36;98855.03;;;21.29;67.63
63500;BME280;49654;51.142;14.924;2023-10-13T10:58:04;98869.63;;;21.68;67.78
63500;BME280;49654;51.142;14.924;2023-10-13T11:00:32;98922.84;;;21.82;67.46
63500;BME280;49654;51.142;14.924;2023-10-13T11:03:11;98917.69;;;21.65;68.88
63500;BME280;49654;51.142;14.924;2023-10-13T11:05:45;98919.38;;;21.44;69.42
63500;BME280;49654;51.142;14.924;2023-10-13T11:08:23;98869.25;;;21.27;69.61
63500;BME280;49654;51.142;14.924;2023-10-13T11:10:59;98903.50;;;21.44;68.95
63500;BME280;49654;51.142;14.924;2023-10-13T11:13:27;98881.91;;;21.20;69.74
63500;BME280;49654;51.142;14.924;2023-10-13T11:15:57;98867.41;;;20.96;69.65
63500;BME280;49654;51.142;14.924;2023-10-13T11:18:29;98918.56;;;21.17;71.14
63500;BME280;49654;51.142;14.924;2023-10-13T11:20:59;98896.78;;;21.05;72.10
63500;BME280;49654;51.142;14.924;2023-10-13T11:23:31;98898.84;;;21.24;70.59
63500;BME280;49654;51.142;14.924;2023-10-13T11:26:00;98871.34;;;21.53;69.59
63500;BME280;49654;51.142;14.924;2023-10-13T11:28:27;98889.13;;;21.62;69.54
63500;BME280;49654;51.142;14.924;2023-10-13T11:30:54;98871.78;;;21.71;69.33
63500;BME280;49654;51.142;14.924;2023-10-13T11:33:25;98884.47;;;22.17;67.98
63500;BME280;49654;51.142;14.924;2023-10-13T11:35:54;98882.81;;;22.58;66.39
63500;BME280;49654;51.142;14.924;2023-10-13T11:38:25;98877.22;;;22.44;66.20
63500;BME280;49654;51.142;14.924;2023-10-13T11:40:54;98877.16;;;22.39;67.08
63500;BME280;49654;51.142;14.924;2023-10-13T11:43:40;98854.19;;;22.45;65.69
63500;BME280;49654;51.142;14.924;2023-10-13T11:46:27;98860.88;;;22.73;65.05
63500;BME280;49654;51.142;14.924;2023-10-13T11:49:20;98866.56;;;22.29;66.43
63500;BME280;49654;51.142;14.924;2023-10-13T11:51:57;98870.75;;;21.78;68.44
63500;BME280;49654;51.142;14.924;2023-10-13T11:54:35;98764.88;;;20.83;70.21
63500;BME280;49654;51.142;14.924;2023-10-13T11:57:07;98855.66;;;21.41;70.14
63500;BME280;49654;51.142;14.924;2023-10-13T11:59:36;98812.34;;;21.10;70.72
63500;BME280;49654;51.142;14.924;2023-10-13T12:02:11;98858.19;;;21.25;71.69
63500;BME280;49654;51.142;14.924;2023-10-13T12:05:11;98858.72;;;21.60;70.66
63500;BME280;49654;51.142;14.924;2023-10-13T12:07:43;98858.59;;;21.77;69.85
63500;BME280;49654;51.142;14.924;2023-10-13T12:10:14;98841.38;;;21.74;70.01
63500;BME280;49654;51.142;14.924;2023-10-13T12:13:00;98852.56;;;21.91;69.30
63500;BME280;49654;51.142;14.924;2023-10-13T12:15:33;98807.53;;;21.71;68.59
63500;BME280;49654;51.142;14.924;2023-10-13T12:18:15;98850.91;;;22.22;67.34
63500;BME280;49654;51.142;14.924;2023-10-13T12:20:42;98849.75;;;22.03;67.97
63500;BME280;49654;51.142;14.924;2023-10-13T12:23:12;98841.94;;;22.23;67.49
63500;BME280;49654;51.142;14.924;2023-10-13T12:25:43;98836.28;;;22.10;67.14
63500;BME280;49654;51.142;14.924;2023-10-13T12:28:32;98849.75;;;22.08;68.19
63500;BME280;49654;51.142;14.924;2023-10-13T12:31:07;98860.75;;;21.85;68.97
63500;BME280;49654;51.142;14.924;2023-10-13T12:33:37;98854.63;;;21.79;69.05
63500;BME280;49654;51.142;14.924;2023-10-13T12:36:06;98854.00;;;21.67;69.12
63500;BME280;49654;51.142;14.924;2023-10-13T12:38:35;98758.31;;;21.22;69.13
63500;BME280;49654;51.142;14.924;2023-10-13T12:41:37;98822.41;;;21.82;67.71
63500;BME280;49654;51.142;14.924;2023-10-13T12:44:22;98829.16;;;22.10;67.67
63500;BME280;49654;51.142;14.924;2023-10-13T12:47:08;98834.53;;;22.20;67.22
63500;BME280;49654;51.142;14.924;2023-10-13T12:49:52;98821.09;;;22.42;65.51
63500;BME280;49654;51.142;14.924;2023-10-13T12:52:25;98825.66;;;22.57;64.33
63500;BME280;49654;51.142;14.924;2023-10-13T12:54:52;98820.63;;;22.61;64.41
63500;BME280;49654;51.142;14.924;2023-10-13T12:57:32;98789.13;;;22.54;64.24
63500;BME280;49654;51.142;14.924;2023-10-13T13:00:00;98802.09;;;22.56;64.64
63500;BME280;49654;51.142;14.924;2023-10-13T13:02:43;98810.72;;;22.20;65.60
63500;BME280;49654;51.142;14.924;2023-10-13T13:05:10;98804.72;;;22.50;64.50
63500;BME280;49654;51.142;14.924;2023-10-13T13:07:39;98801.91;;;22.98;63.58
63500;BME280;49654;51.142;14.924;2023-10-13T13:10:13;98797.16;;;23.10;62.60
63500;BME280;49654;51.142;14.924;2023-10-13T13:12:40;98772.75;;;22.78;62.62
63500;BME280;49654;51.142;14.924;2023-10-13T13:15:08;98798.19;;;23.24;61.89
63500;BME280;49654;51.142;14.924;2023-10-13T13:17:35;98781.25;;;23.20;61.32
63500;BME280;49654;51.142;14.924;2023-10-13T13:20:07;98748.94;;;22.83;61.86
63500;BME280;49654;51.142;14.924;2023-10-13T13:22:52;98766.97;;;23.21;62.12
63500;BME280;49654;51.142;14.924;2023-10-13T13:25:20;98766.44;;;23.04;62.51
63500;BME280;49654;51.142;14.924;2023-10-13T13:27:51;98766.94;;;23.16;62.57
63500;BME280;49654;51.142;14.924;2023-10-13T13:30:18;98713.72;;;22.77;62.41